Latest Weather Observations for Gudgenby

IDN60801

Issued at 2:53 am EDT Friday 29 January 2021 (issued every 10 minutes, with the page automatically refreshed every 10 minutes)

About weather observations | Map of weather stations | Latest weather observations for NSW | Other Formats
Station Details ID: 250072 Name: GUDGENBY (PCS) Lat: -35.73 Lon: 148.98 Height: 1035.0 m

Portable automatic weather stations (PAWS) are operated by other organisations, such as Fire and Emergency Services, and are included here by agreement. Portable stations may be deployed to a location for a short period and their location may be subject to change without notice. Wind observations from these stations are provided from heights of either three (3) or ten (10) metres above ground level (AGL).

Data from the previous 72 hours. | See also: Recent months for locations in New South Wales
Date/Time
EDT
Temp
°C
App
Temp
°C
Dew
Point
°C
Rel
Hum
%
Delta-T
°C
Wind Press
QNH
hPa
Press
MSL
hPa
Rain since
9am
mm
Dir  Spd
km/h
Gust
km/h
Spd
kts
Gust
kts
29/02:40am 11.4 9.4 10.1 92 0.7 NW 11 15 6 8 - - 10.8
29/02:30am 11.2 9.6 10.3 94 0.5 NNW 9 15 5 8 - - 10.6
29/02:20am 11.2 9.6 10.3 94 0.5 NNW 9 15 5 8 - - 10.6
29/02:10am 11.1 9.5 10.2 94 0.5 N 9 13 5 7 - - 10.4
29/02:00am 11.2 9.6 10.3 94 0.5 N 9 13 5 7 - - 10.4
29/01:50am 11.3 9.3 10.3 94 0.5 NNW 11 15 6 8 - - 10.2
29/01:40am 11.2 9.1 9.9 92 0.7 NNW 11 17 6 9 - - 10.2
29/01:30am 11.2 9.2 10.1 93 0.6 NNW 11 15 6 8 - - 10.0
29/01:20am 11.2 9.6 10.1 93 0.6 NNW 9 15 5 8 - - 10.0
29/01:10am 11.2 9.5 10.0 92 0.6 N 9 13 5 7 - - 9.8
29/01:00am 11.3 9.3 10.1 92 0.6 NNW 11 15 6 8 - - 9.8
29/12:50am 11.2 9.5 9.9 92 0.7 NW 9 15 5 8 - - 9.6
29/12:40am 11.2 9.9 10.1 93 0.6 N 7 15 4 8 - - 9.4
29/12:30am 11.1 8.7 10.1 94 0.5 N 13 19 7 10 - - 9.4
29/12:20am 11.1 9.5 10.1 94 0.5 NNW 9 11 5 6 - - 9.2
29/12:10am 11.0 9.3 10.0 93 0.5 N 9 13 5 7 - - 9.2
29/12:00am 11.0 9.3 10.0 93 0.5 N 9 15 5 8 - - 9.0
 
Date/Time
EDT
Temp
°C
App
Temp
°C
Dew
Point
°C
Rel
Hum
%
Delta-T
°C
Wind Press
QNH
hPa
Press
MSL
hPa
Rain since
9am
mm
Dir  Spd
km/h
Gust
km/h
Spd
kts
Gust
kts
28/11:50pm 11.0 8.6 10.0 93 0.5 N 13 19 7 10 - - 9.0
28/11:40pm 11.0 8.1 9.8 92 0.6 N 15 20 8 11 - - 8.8
28/11:30pm 11.0 9.7 10.1 94 0.5 N 7 11 4 6 - - 8.6
28/11:20pm 10.9 8.5 10.2 95 0.4 N 13 15 7 8 - - 8.6
28/11:10pm 11.0 8.3 10.2 95 0.4 NW 15 17 8 9 - - 8.4
28/11:00pm 11.1 8.8 10.3 95 0.4 NW 13 19 7 10 - - 8.4
28/10:50pm 11.1 9.9 10.4 95 0.4 NNW 7 11 4 6 - - 8.2
28/10:40pm 11.1 8.8 10.3 95 0.4 N 13 15 7 8 - - 8.0
28/10:30pm 11.1 8.0 10.3 95 0.4 N 17 20 9 11 - - 8.0
28/10:20pm 11.1 8.0 10.4 95 0.4 N 17 19 9 10 - - 7.8
28/10:10pm 11.1 9.5 10.3 95 0.4 NNE 9 15 5 8 - - 7.6
28/10:00pm 11.2 10.0 10.4 95 0.4 NNE 7 9 4 5 - - 7.4
28/09:50pm 11.3 10.1 10.4 94 0.5 NE 7 9 4 5 - - 7.4
28/09:40pm 11.4 10.3 10.5 94 0.5 ENE 7 7 4 4 - - 7.2
28/09:30pm 11.4 10.2 10.4 94 0.5 ENE 7 9 4 5 - - 7.0
28/09:20pm 11.4 9.8 10.3 93 0.6 NE 9 11 5 6 - - 6.8
28/09:10pm 11.4 9.8 10.2 92 0.6 E 9 11 5 6 - - 6.6
28/09:00pm 11.4 10.1 10.1 92 0.7 E 7 11 4 6 - - 6.4
28/08:50pm 11.4 10.4 10.3 93 0.6 E 6 6 3 3 - - 6.2
28/08:40pm 11.4 10.4 10.4 94 0.5 E 6 7 3 4 - - 6.0
28/08:30pm 11.4 10.4 10.3 93 0.6 E 6 7 3 4 - - 5.6
28/08:20pm 11.4 10.4 10.3 93 0.6 ESE 6 9 3 5 - - 5.4
28/08:10pm 11.4 9.8 10.2 92 0.6 ESE 9 11 5 6 - - 5.2
28/08:00pm 11.5 9.8 10.0 90 0.8 SE 9 15 5 8 - - 4.8
28/07:50pm 11.5 9.8 9.9 90 0.9 ESE 9 11 5 6 - - 4.6
28/07:40pm 11.6 10.0 10.2 91 0.8 SE 9 15 5 8 - - 4.2
28/07:30pm 11.6 9.6 10.1 90 0.8 SE 11 13 6 7 - - 4.0
28/07:20pm 11.8 10.5 10.1 89 0.9 SSE 7 9 4 5 - - 3.8
28/07:10pm 11.8 10.8 10.3 90 0.8 S 6 9 3 5 - - 3.4
28/07:00pm 11.8 10.8 10.3 90 0.8 ESE 6 13 3 7 - - 3.0
28/06:50pm 11.8 10.2 10.3 90 0.8 SE 9 17 5 9 - - 2.8
28/06:40pm 11.7 9.0 10.4 92 0.7 SE 15 19 8 10 - - 2.4
28/06:30pm 12.0 10.3 11.1 94 0.5 SSE 11 15 6 8 - - 2.0
28/06:20pm 12.1 11.8 11.6 97 0.3 E 4 6 2 3 - - 1.6
28/06:10pm 12.1 11.2 11.5 96 0.3 ENE 7 11 4 6 - - 1.0
28/06:00pm 12.1 10.9 11.5 96 0.3 ENE 9 11 5 6 - - 0.8
28/05:50pm 12.2 11.0 11.6 96 0.3 NE 9 11 5 6 - - 0.6
28/05:40pm 12.2 10.6 11.5 95 0.4 NE 11 13 6 7 - - 0.4
28/05:30pm 12.3 10.3 11.6 95 0.4 NE 13 15 7 8 - - 0.2
28/05:20pm 12.5 11.4 11.8 95 0.4 NE 9 13 5 7 - - 0.2
28/05:10pm 12.7 12.0 12.1 96 0.3 ENE 7 9 4 5 - - 0.2
28/05:00pm 12.7 12.2 12.1 96 0.3 ENE 6 7 3 4 - - 0.2
28/04:50pm 12.9 12.8 12.2 95 0.4 ENE 4 9 2 5 - - 0.2
28/04:40pm 13.0 12.5 12.1 94 0.5 ENE 6 7 3 4 - - 0.2
28/04:30pm 13.1 12.6 12.2 94 0.5 E 6 9 3 5 - - 0.2
28/04:20pm 13.3 13.5 11.7 90 0.9 N 2 4 1 2 - - 0.0
28/04:10pm 13.3 13.1 11.9 91 0.8 NE 4 6 2 3 - - 0.0
28/04:00pm 13.4 13.3 12.0 91 0.8 NE 4 6 2 3 - - 0.0
28/03:50pm 13.4 13.2 11.8 90 0.9 ENE 4 6 2 3 - - 0.0
28/03:40pm 13.5 13.2 11.6 88 1.1 NE 4 4 2 2 - - 0.0
28/03:30pm 13.6 13.3 11.6 88 1.1 NE 4 6 2 3 - - 0.0
28/03:20pm 13.7 12.8 11.2 85 1.4 ENE 7 7 4 4 - - 0.0
28/03:10pm 13.8 12.9 11.2 84 1.5 E 7 11 4 6 - - 0.0
28/03:00pm 13.8 12.5 11.2 84 1.5 E 9 9 5 5 - - 0.0
28/02:50pm 14.0 12.7 11.1 83 1.6 - 9 13 5 7 - - 0.0
28/02:40pm 14.3 12.3 10.1 76 2.3 E 11 13 6 7 - - 0.0
28/02:30pm 14.4 12.4 10.0 75 2.4 E 11 15 6 8 - - 0.0
28/02:20pm 14.5 13.4 9.9 74 2.5 NE 6 9 3 5 - - 0.0
28/02:10pm 14.5 13.2 9.9 74 2.5 N 7 7 4 4 - - 0.0
28/02:00pm 14.8 13.6 10.2 74 2.5 NNE 7 9 4 5 - - 0.0
28/01:50pm 15.1 14.0 10.0 71 2.8 ENE 6 9 3 5 - - 0.0
28/01:40pm 14.8 13.1 9.9 72 2.7 ENE 9 11 5 6 - - 0.0
28/01:30pm 14.8 13.2 10.1 73 2.6 E 9 11 5 6 - - 0.0
28/01:20pm 14.5 12.8 9.9 74 2.5 E 9 11 5 6 - - 0.0
28/01:10pm 14.3 12.2 9.9 75 2.4 ENE 11 13 6 7 - - 0.0
28/01:00pm 13.9 11.2 10.3 79 2.0 E 15 19 8 10 - - 0.0
28/12:50pm 14.1 11.3 9.9 76 2.3 E 15 20 8 11 - - 0.0
28/12:40pm 14.3 11.9 10.2 76 2.3 E 13 19 7 10 - - 0.0
28/12:30pm 14.5 12.1 9.9 74 2.5 E 13 17 7 9 - - 0.0
28/12:20pm 14.6 13.0 10.1 74 2.5 E 9 11 5 6 - - 0.0
28/12:10pm 14.7 13.1 10.2 74 2.5 ENE 9 15 5 8 - - 0.0
28/12:00pm 14.7 12.3 10.1 74 2.5 ENE 13 15 7 8 - - 0.0
28/11:50am 14.6 13.3 9.9 73 2.6 E 7 15 4 8 - - 0.0
28/11:40am 14.4 12.4 10.0 75 2.4 ENE 11 13 6 7 - - 0.0
28/11:30am 14.4 12.0 10.1 75 2.4 ENE 13 17 7 9 - - 0.0
28/11:20am 14.2 11.8 10.0 76 2.3 ENE 13 19 7 10 - - 0.0
28/11:10am 14.3 11.5 10.1 76 2.3 ENE 15 20 8 11 - - 0.0
28/11:00am 14.4 12.4 10.1 75 2.4 E 11 17 6 9 - - 0.0
28/10:50am 14.2 12.2 10.1 76 2.2 ENE 11 19 6 10 - - 0.0
28/10:40am 14.2 12.1 9.9 75 2.3 ENE 11 15 6 8 - - 0.0
28/10:30am 14.2 12.1 9.9 75 2.3 ENE 11 15 6 8 - - 0.0
28/10:20am 14.1 12.0 9.8 75 2.3 E 11 15 6 8 - - 0.0
28/10:10am 13.9 11.9 10.3 79 2.0 E 11 17 6 9 - - 0.0
28/10:00am 14.0 12.1 10.4 79 2.0 E 11 15 6 8 - - 0.0
28/09:50am 14.0 12.0 10.3 78 2.0 E 11 15 6 8 - - 0.0
28/09:40am 14.1 12.5 10.2 77 2.1 E 9 11 5 6 - - 0.0
28/09:30am 14.1 12.5 10.3 78 2.1 E 9 11 5 6 - - 0.0
28/09:20am 14.1 13.1 10.2 77 2.1 E 6 7 3 4 - - 0.0
28/09:10am 14.0 12.7 10.1 77 2.1 ENE 7 9 4 5 - - 0.0
28/09:00am 13.9 11.8 9.9 77 2.2 E 11 15 6 8 - - 0.0
28/08:50am 13.8 12.5 10.0 78 2.1 E 7 11 4 6 - - 0.0
28/08:40am 13.8 12.1 9.9 77 2.1 ENE 9 11 5 6 - - 0.0
28/08:30am 13.8 12.1 10.0 78 2.1 ENE 9 13 5 7 - - 0.0
28/08:20am 13.7 11.3 9.9 78 2.1 ENE 13 15 7 8 - - 0.0
28/08:10am 13.5 11.4 9.9 79 2.0 ENE 11 15 6 8 - - 0.0
28/08:00am 13.5 11.8 9.9 79 2.0 ENE 9 13 5 7 - - 0.0
28/07:50am 13.2 11.9 10.1 81 1.7 E 7 13 4 7 - - 0.0
28/07:40am 13.1 11.5 10.1 82 1.6 ESE 9 15 5 8 - - 0.0
28/07:30am 13.1 11.1 10.0 81 1.7 E 11 15 6 8 - - 0.0
28/07:20am 13.0 11.3 10.0 82 1.6 E 9 13 5 7 - - 0.0
28/07:10am 13.0 11.0 10.1 82 1.6 E 11 17 6 9 - - 0.0
28/07:00am 13.0 10.6 10.2 83 1.5 ESE 13 17 7 9 - - 0.0
28/06:50am 13.1 11.5 10.1 82 1.6 E 9 15 5 8 - - 0.0
28/06:40am 13.1 11.1 10.0 81 1.7 E 11 15 6 8 - - 0.0
28/06:30am 13.1 10.7 10.1 82 1.6 ESE 13 15 7 8 - - 0.0
28/06:20am 13.1 11.5 10.1 82 1.6 E 9 13 5 7 - - 0.0
28/06:10am 13.1 11.1 10.2 82 1.6 E 11 15 6 8 - - 0.0
28/06:00am 13.2 10.8 10.1 81 1.7 E 13 17 7 9 - - 0.0
28/05:50am 13.2 11.6 10.2 82 1.6 E 9 11 5 6 - - 0.0
28/05:40am 13.2 10.8 10.2 82 1.6 ENE 13 19 7 10 - - 0.0
28/05:30am 13.3 10.1 10.1 81 1.7 E 17 22 9 12 - - 0.0
28/05:20am 13.3 9.8 10.1 81 1.7 E 19 26 10 14 - - 0.0
28/05:10am 13.3 10.5 10.1 81 1.7 E 15 22 8 12 - - 0.0
28/05:00am 13.3 10.2 10.3 82 1.6 E 17 20 9 11 - - 0.0
28/04:50am 13.2 10.9 10.5 84 1.5 E 13 20 7 11 - - 0.0
28/04:40am 13.3 10.6 10.5 83 1.5 E 15 19 8 10 - - 0.0
28/04:30am 13.5 10.8 10.5 82 1.7 ENE 15 19 8 10 - - 0.0
28/04:20am 13.5 11.6 10.5 82 1.7 ENE 11 13 6 7 - - 0.0
28/04:10am 13.6 11.3 10.5 81 1.7 E 13 15 7 8 - - 0.0
28/04:00am 13.6 11.0 10.6 82 1.7 E 15 19 8 10 - - 0.0
28/03:50am 13.7 11.4 10.6 81 1.7 E 13 15 7 8 - - 0.0
28/03:40am 13.7 11.9 10.8 83 1.6 E 11 19 6 10 - - 0.0
28/03:30am 13.8 11.6 10.8 82 1.7 ESE 13 17 7 9 - - 0.0
28/03:20am 13.9 12.5 10.8 81 1.7 ESE 9 11 5 6 - - 0.0
28/03:10am 14.0 12.5 10.7 80 1.8 E 9 13 5 7 - - 0.0
28/03:00am 14.1 11.8 10.6 79 1.9 ENE 13 17 7 9 - - 0.0
28/02:50am 14.0 11.7 10.6 80 1.9 E 13 17 7 9 - - 0.0
28/02:40am 14.0 12.9 10.7 80 1.8 - 7 15 4 8 - - 0.0
28/02:30am 14.0 13.5 10.7 80 1.8 E 4 7 2 4 - - 0.0
28/02:20am 14.0 13.1 10.8 81 1.8 SE 6 9 3 5 - - 0.0
28/02:10am 14.0 13.2 10.9 81 1.7 SE 6 7 3 4 - - 0.0
28/02:00am 14.0 13.6 11.0 82 1.7 ESE 4 7 2 4 - - 0.0
28/01:50am 14.0 13.0 10.9 81 1.7 SE 7 11 4 6 - - 0.0
28/01:40am 14.0 13.2 11.1 83 1.6 ESE 6 7 3 4 - - 0.0
28/01:30am 14.0 13.6 11.1 83 1.6 E 4 6 2 3 - - 0.0
28/01:20am 14.1 13.7 11.1 82 1.7 ESE 4 6 2 3 - - 0.0
28/01:10am 14.0 13.5 10.9 81 1.7 SE 4 9 2 5 - - 0.0
28/01:00am 14.1 13.1 11.1 82 1.7 SE 7 11 4 6 - - 0.0
28/12:50am 14.1 12.7 11.0 81 1.7 ESE 9 13 5 7 - - 0.0
28/12:40am 14.1 13.3 10.9 81 1.8 SE 6 9 3 5 - - 0.0
28/12:30am 14.0 13.0 10.9 81 1.7 S 7 9 4 5 - - 0.0
28/12:20am 14.0 13.0 11.0 82 1.7 SSE 7 7 4 4 - - 0.0
28/12:10am 14.0 13.0 10.9 81 1.7 SE 7 13 4 7 - - 0.0
28/12:00am 13.9 13.4 10.9 82 1.7 WNW 4 6 2 3 - - 0.0
 
Date/Time
EDT
Temp
°C
App
Temp
°C
Dew
Point
°C
Rel
Hum
%
Delta-T
°C
Wind Press
QNH
hPa
Press
MSL
hPa
Rain since
9am
mm
Dir  Spd
km/h
Gust
km/h
Spd
kts
Gust
kts
27/11:50pm 13.9 12.8 10.8 81 1.7 ESE 7 9 4 5 - - 0.0
27/11:40pm 13.8 12.9 10.8 82 1.7 S 6 7 3 4 - - 0.0
27/11:30pm 13.8 12.7 10.8 82 1.7 S 7 15 4 8 - - 0.0
27/11:20pm 13.8 12.7 10.8 82 1.7 SSE 7 11 4 6 - - 0.0
27/11:10pm 13.8 12.0 10.7 81 1.7 SE 11 13 6 7 - - 0.0
27/11:00pm 13.8 12.3 10.7 81 1.7 ESE 9 15 5 8 - - 0.0
27/10:50pm 13.7 12.5 10.4 80 1.8 SSE 7 13 4 7 - - 0.0
27/10:40pm 13.9 11.9 10.2 78 2.0 SSE 11 17 6 9 - - 0.0
27/10:30pm 13.8 12.2 10.1 78 2.0 SSE 9 13 5 7 - - 0.0
27/10:20pm 13.8 11.8 10.0 78 2.1 SE 11 13 6 7 - - 0.0
27/10:10pm 13.9 11.5 9.9 77 2.2 SE 13 15 7 8 - - 0.0
27/10:00pm 13.9 12.2 9.7 76 2.3 SE 9 13 5 7 - - 0.0
27/09:50pm 13.9 12.5 9.4 74 2.4 ESE 7 9 4 5 - - 0.0
27/09:40pm 13.9 12.8 9.8 76 2.2 ESE 6 11 3 6 - - 0.0
27/09:30pm 13.9 12.8 9.9 77 2.2 ESE 6 9 3 5 - - 0.0
27/09:20pm 14.0 11.5 9.8 76 2.3 SE 13 17 7 9 - - 0.0
27/09:10pm 14.1 12.7 9.6 74 2.4 SSE 7 13 4 7 - - 0.0
27/09:00pm 14.1 12.6 9.1 72 2.7 SSE 7 11 4 6 - - 0.0
27/08:50pm 14.1 12.6 9.3 73 2.6 SSE 7 11 4 6 - - 0.0
27/08:40pm 14.1 12.6 9.1 72 2.7 SSW 7 9 4 5 - - 0.0
27/08:30pm 14.2 12.7 9.0 71 2.8 SE 7 9 4 5 - - 0.0
27/08:20pm 14.2 12.8 8.8 70 2.9 SE 6 11 3 6 - - 0.0
27/08:10pm 14.3 12.7 8.9 70 2.9 SE 7 9 4 5 - - 0.0
27/08:00pm 14.4 12.4 8.7 68 3.0 E 9 13 5 7 - - 0.0
27/07:50pm 14.4 11.3 8.9 69 3.0 E 15 20 8 11 - - 0.0
27/07:40pm 14.5 11.8 9.1 70 2.9 ESE 13 19 7 10 - - 0.0
27/07:30pm 14.6 11.5 9.0 69 3.0 ESE 15 20 8 11 - - 0.0
27/07:20pm 14.7 12.4 8.9 68 3.1 SE 11 15 6 8 - - 0.0
27/07:10pm 14.7 11.3 9.2 69 3.0 SE 17 20 9 11 - - 0.0
27/07:00pm 14.9 11.6 9.4 69 3.0 SE 17 22 9 12 - - 0.0
27/06:50pm 15.1 11.1 9.2 68 3.2 SE 20 28 11 15 - - 0.0
27/06:40pm 15.3 11.5 8.9 65 3.5 SE 19 20 10 11 - - 0.0
27/06:30pm 15.4 12.4 9.4 67 3.3 SE 15 20 8 11 - - 0.0
27/06:20pm 15.4 13.8 10.2 71 2.9 ESE 9 13 5 7 - - 0.0
27/06:10pm 15.2 12.4 10.0 71 2.9 SE 15 20 8 11 - - 0.0
27/06:00pm 15.0 11.9 10.2 73 2.6 ESE 17 22 9 12 - - 0.0
27/05:50pm 14.8 11.6 11.9 83 1.7 ESE 20 26 11 14 - - 0.0
27/05:40pm 15.4 13.5 13.0 85 1.4 ESE 15 26 8 14 - - 0.0
27/05:30pm 15.8 15.2 13.5 86 1.4 E 9 15 5 8 - - 0.0
27/05:20pm 15.7 15.1 13.4 86 1.4 E 9 15 5 8 - - 0.0
27/05:10pm 15.7 15.0 14.3 91 0.8 ESE 11 13 6 7 - - 0.0
27/05:00pm 15.8 15.5 14.3 91 0.9 ESE 9 13 5 7 - - 0.0
27/04:50pm 15.8 15.4 14.0 89 1.1 ESE 9 13 5 7 - - 0.0
27/04:40pm 15.9 15.9 14.3 90 1.0 E 7 11 4 6 - - 0.0
27/04:30pm 16.0 15.7 14.4 90 1.0 - 9 13 5 7 - - 0.0
27/04:20pm 16.3 15.7 14.6 90 1.0 E 11 11 6 6 - - 0.0
27/04:10pm 16.7 15.2 14.3 86 1.4 E 15 19 8 10 - - 0.0
27/04:00pm 17.2 15.7 14.2 82 1.8 E 15 20 8 11 - - 0.0
27/03:50pm 17.6 16.8 13.9 79 2.2 E 11 17 6 9 - - 0.0
27/03:40pm 17.6 16.8 13.9 79 2.2 E 11 15 6 8 - - 0.0
27/03:30pm 17.8 17.1 14.3 80 2.1 ENE 11 13 6 7 - - 0.0
27/03:20pm 18.1 17.4 14.2 78 2.3 ENE 11 15 6 8 - - 0.0
27/03:10pm 18.5 18.5 14.3 76 2.5 ENE 7 13 4 7 - - 0.0
27/03:00pm 18.4 18.3 13.9 75 2.7 ESE 7 9 4 5 - - 0.0
27/02:50pm 18.2 18.2 14.2 77 2.4 - 7 9 4 5 - - 0.0
27/02:40pm 17.4 17.4 14.2 81 1.9 E 7 9 4 5 - - 0.0
27/02:30pm 16.9 17.2 14.4 85 1.5 E 6 7 3 4 - - 0.0
27/02:20pm 16.8 16.8 14.3 85 1.5 NNE 7 9 4 5 - - 0.0
27/02:10pm 17.0 17.1 14.5 85 1.5 NE 7 11 4 6 - - 0.0
27/02:00pm 16.8 16.9 14.5 86 1.4 NNE 7 9 4 5 - - 0.0
27/01:50pm 16.9 17.0 14.5 86 1.4 NE 7 9 4 5 - - 0.0
27/01:40pm 16.7 16.7 14.2 85 1.5 NE 7 9 4 5 - - 0.0
27/01:30pm 16.5 16.2 14.3 87 1.3 NNE 9 13 5 7 - - 0.0
27/01:20pm 16.7 15.7 14.5 87 1.3 N 13 17 7 9 - - 0.0
27/01:10pm 17.1 16.4 14.4 84 1.6 NNE 11 13 6 7 - - 0.0
27/01:00pm 17.0 16.6 14.2 83 1.7 NNE 9 11 5 6 - - 0.0
27/12:50pm 17.1 16.7 14.1 82 1.8 NE 9 11 5 6 - - 0.0
27/12:40pm 17.1 17.4 14.4 84 1.6 NE 6 7 3 4 - - 0.0
27/12:30pm 17.0 17.1 14.4 85 1.6 E 7 9 4 5 - - 0.0
27/12:20pm 16.9 16.9 14.3 85 1.6 ESE 7 11 4 6 - - 0.0
27/12:10pm 17.0 17.1 14.4 85 1.6 E 7 11 4 6 - - 0.0
27/12:00pm 17.0 16.7 14.3 84 1.6 ESE 9 13 5 7 - - 0.0
27/11:50am 17.1 16.8 14.5 85 1.6 E 9 9 5 5 - - 0.0
27/11:40am 16.7 16.8 14.4 86 1.4 NE 7 9 4 5 - - 0.0
27/11:30am 16.2 16.4 14.7 91 0.9 ENE 7 9 4 5 - - 0.0
27/11:20am 16.2 16.0 14.6 90 1.0 ENE 9 9 5 5 - - 0.0
27/11:10am 16.5 16.7 14.8 90 1.0 NE 7 9 4 5 - - 0.0
27/11:00am 16.8 17.0 14.8 88 1.2 E 7 9 4 5 - - 0.0
27/10:50am 16.9 17.1 14.3 85 1.6 E 6 7 3 4 - - 0.0
27/10:40am 16.9 17.1 14.2 84 1.6 E 6 7 3 4 - - 0.0
27/10:30am 16.9 17.4 14.0 83 1.7 NE 4 7 2 4 - - 0.0
27/10:20am 17.0 17.5 14.0 82 1.8 SE 4 6 2 3 - - 0.0
27/10:10am 17.1 18.0 14.1 82 1.8 NNE 2 4 1 2 - - 0.0
27/10:00am 16.5 17.3 13.7 83 1.7 SE 2 6 1 3 - - 1.4
27/09:50am 16.3 16.7 13.8 85 1.5 SE 4 6 2 3 - - 1.4
27/09:40am 16.1 16.1 13.7 86 1.4 S 6 7 3 4 - - 1.4
27/09:30am 15.3 15.3 13.6 90 1.0 S 6 7 3 4 - - 1.4
27/09:20am 14.9 14.7 13.5 91 0.8 S 7 9 4 5 - - 1.4
27/09:10am 14.7 14.1 13.6 93 0.6 S 9 11 5 6 - - 1.4
27/09:00am 14.6 13.6 13.3 92 0.8 S 11 13 6 7 - - 1.4
27/08:50am 14.6 13.1 13.2 91 0.8 S 13 15 7 8 - - 1.4
27/08:40am 14.4 13.3 13.0 91 0.8 S 11 13 6 7 - - 1.4
27/08:30am 14.4 13.3 13.0 91 0.8 S 11 13 6 7 - - 1.4
27/08:20am 14.3 13.2 13.0 92 0.8 S 11 13 6 7 - - 1.4
27/08:10am 14.1 12.9 12.9 92 0.7 S 11 13 6 7 - - 1.4
27/08:00am 14.0 12.8 12.8 92 0.7 S 11 13 6 7 - - 1.4
27/07:50am 13.8 11.8 12.8 94 0.6 S 15 17 8 9 - - 1.4
27/07:40am 13.8 11.8 12.7 93 0.6 S 15 17 8 9 - - 1.4
27/07:30am 13.8 12.2 12.7 93 0.6 S 13 17 7 9 - - 1.4
27/07:20am 13.7 11.2 12.4 92 0.7 S 17 19 9 10 - - 1.4
27/07:10am 13.6 11.2 12.6 94 0.6 S 17 19 9 10 - - 1.4
27/07:00am 13.6 10.8 12.6 94 0.6 S 19 19 10 10 - - 1.4
27/06:50am 13.5 10.7 12.6 94 0.5 S 19 22 10 12 - - 1.4
27/06:40am 13.6 10.8 12.7 94 0.5 S 19 20 10 11 - - 1.4
27/06:30am 13.7 11.3 12.8 94 0.5 S 17 19 9 10 - - 1.4
27/06:20am 13.8 11.9 13.0 95 0.5 S 15 17 8 9 - - 1.4
27/06:10am 13.9 12.1 13.2 96 0.4 S 15 17 8 9 - - 1.4
27/06:00am 14.1 11.9 13.4 96 0.4 S 17 19 9 10 - - 1.4
27/05:50am 14.4 13.1 13.7 96 0.4 S 13 15 7 8 - - 1.4
27/05:40am 14.6 13.4 13.9 96 0.4 S 13 17 7 9 - - 1.4
27/05:30am 14.9 13.4 14.1 95 0.5 S 15 17 8 9 - - 1.4
27/05:20am 15.3 13.8 14.3 94 0.6 S 15 17 8 9 - - 1.4
27/05:10am 15.5 14.5 14.5 94 0.6 S 13 15 7 8 - - 1.4
27/05:00am 15.5 14.5 14.5 94 0.6 S 13 13 7 7 - - 1.4
27/04:50am 15.5 14.1 14.4 93 0.7 S 15 17 8 9 - - 1.4
27/04:40am 15.5 14.4 14.4 93 0.7 S 13 15 7 8 - - 1.4
27/04:30am 15.5 14.9 14.5 94 0.6 S 11 13 6 7 - - 1.4
27/04:20am 15.6 15.0 14.6 94 0.6 S 11 13 6 7 - - 1.4
27/04:10am 15.6 15.3 14.5 93 0.7 S 9 11 5 6 - - 1.4
27/04:00am 15.7 15.9 14.7 94 0.6 S 7 9 4 5 - - 1.4
27/03:50am 15.8 16.0 14.8 94 0.6 S 7 7 4 4 - - 1.4
27/03:40am 15.9 16.3 15.2 96 0.4 S 7 7 4 4 - - 1.4
27/03:30am 16.0 17.0 15.3 96 0.4 S 4 6 2 3 - - 1.4
27/03:20am 16.1 16.7 15.4 96 0.4 S 6 7 3 4 - - 1.4
27/03:10am 16.1 16.5 15.4 96 0.4 S 7 9 4 5 - - 1.4
27/03:00am 16.2 16.6 15.3 94 0.5 S 7 7 4 4 - - 1.4
27/02:50am 16.1 16.7 15.4 96 0.4 S 6 7 3 4 - - 1.4
27/02:40am 16.1 17.2 15.5 96 0.4 SE 4 6 2 3 - - 1.4
27/02:30am 16.1 17.1 15.4 96 0.4 E 4 6 2 3 - - 1.4
27/02:20am 16.1 16.7 15.4 96 0.4 SE 6 6 3 3 - - 1.4
27/02:10am 16.1 16.5 15.3 95 0.5 S 7 11 4 6 - - 1.4
27/02:00am 16.3 16.3 15.3 94 0.6 SSW 9 9 5 5 - - 1.4
27/01:50am 16.4 17.0 15.4 94 0.6 S 6 7 3 4 - - 1.4
27/01:40am 16.5 17.2 15.5 94 0.6 S 6 9 3 5 - - 1.4
27/01:30am 16.6 17.1 15.6 94 0.6 S 7 9 4 5 - - 1.4
27/01:20am 16.7 16.9 15.7 94 0.6 S 9 9 5 5 - - 1.4
27/01:10am 16.8 17.6 15.9 94 0.6 S 6 7 3 4 - - 1.4
27/01:00am 16.8 18.0 16.0 95 0.5 SSE 4 6 2 3 - - 1.4
27/12:50am 16.8 17.5 16.1 96 0.4 SSE 7 7 4 4 - - 1.4
27/12:40am 16.7 17.4 16.0 96 0.4 SSE 7 9 4 5 - - 1.4
27/12:30am 16.7 17.6 16.0 96 0.4 SSE 6 7 3 4 - - 1.4
27/12:20am 16.8 17.5 16.0 95 0.5 S 7 9 4 5 - - 1.4
27/12:10am 17.1 17.8 16.1 94 0.6 S 7 9 4 5 - - 1.4
27/12:00am 17.5 18.6 17.1 97 0.3 NE 7 7 4 4 - - 1.4
 
Date/Time
EDT
Temp
°C
App
Temp
°C
Dew
Point
°C
Rel
Hum
%
Delta-T
°C
Wind Press
QNH
hPa
Press
MSL
hPa
Rain since
9am
mm
Dir  Spd
km/h
Gust
km/h
Spd
kts
Gust
kts
26/11:50pm 17.5 18.6 17.2 98 0.2 NE 7 9 4 5 - - 1.4
26/11:40pm 17.5 18.6 17.1 97 0.3 ENE 7 9 4 5 - - 1.4
26/11:30pm 17.5 18.6 17.1 97 0.3 ENE 7 7 4 4 - - 1.4
26/11:20pm 17.5 18.8 17.1 97 0.3 E 6 6 3 3 - - 1.4
26/11:10pm 17.5 18.6 17.1 97 0.3 SE 7 7 4 4 - - 1.4
26/11:00pm 17.6 18.7 17.0 96 0.4 E 7 9 4 5 - - 1.4
26/10:50pm 17.6 18.6 16.9 96 0.4 ENE 7 9 4 5 - - 1.4
26/10:40pm 17.6 18.6 16.9 96 0.4 ENE 7 11 4 6 - - 1.2
26/10:30pm 17.7 19.0 17.0 96 0.4 ENE 6 6 3 3 - - 1.2
26/10:20pm 17.7 19.3 17.0 96 0.4 NE 4 6 2 3 - - 1.0
26/10:10pm 17.7 19.4 17.1 96 0.4 NE 4 6 2 3 - - 0.8
26/10:00pm 17.8 19.6 17.3 97 0.3 NNE 4 6 2 3 - - 0.8
26/09:50pm 17.9 19.2 17.2 96 0.4 NNE 6 7 3 4 - - 0.6
26/09:40pm 17.8 19.3 16.7 93 0.7 N 4 6 2 3 - - 0.6
26/09:30pm 17.8 19.4 16.9 94 0.6 NW 4 4 2 2 - - 0.6
26/09:20pm 17.7 19.8 17.2 97 0.3 N 2 4 1 2 - - 0.4
26/09:00pm 17.8 19.2 17.3 97 0.3 N 6 6 3 3 - - 0.4
26/08:50pm 17.7 19.4 17.2 97 0.3 NNE 4 6 2 3 - - 0.4
26/08:40pm 17.7 19.3 17.0 96 0.4 ESE 4 6 2 3 - - 0.4
26/08:30pm 17.7 18.8 17.1 96 0.4 SE 7 11 4 6 - - 0.4
26/08:20pm 17.8 17.7 17.0 95 0.5 SSE 13 17 7 9 - - 0.4
26/08:10pm 18.4 18.8 17.3 93 0.7 SW 11 20 6 11 - - 0.4
26/08:00pm 18.8 19.7 16.7 87 1.3 NW 7 11 4 6 - - 0.4
26/07:50pm 18.9 19.0 16.6 86 1.4 NNW 11 13 6 7 - - 0.4
26/07:40pm 19.1 19.2 16.6 85 1.6 NNW 11 17 6 9 - - 0.2
26/07:30pm 19.2 19.7 16.5 84 1.7 N 9 13 5 7 - - 0.2
26/07:20pm 19.2 18.4 16.1 82 1.9 NNW 15 17 8 9 - - 0.2
26/07:10pm 19.2 18.4 16.2 83 1.9 NNW 15 17 8 9 - - 0.2
26/07:00pm 19.3 18.0 16.8 85 1.6 NNW 19 20 10 11 - - 0.2
26/06:50pm 19.1 18.4 16.5 85 1.6 NNW 15 17 8 9 - - 0.2
26/06:40pm 18.9 18.1 16.0 83 1.8 NNW 15 17 8 9 - - 0.2
26/06:30pm 18.7 17.4 16.7 88 1.3 NNW 19 20 10 11 - - 0.0
26/06:20pm 18.7 19.1 16.4 86 1.4 NE 9 17 5 9 - - 0.0
26/06:10pm 18.5 19.7 16.9 90 1.0 NE 6 7 3 4 - - 0.0
26/06:00pm 18.4 19.0 16.8 90 1.0 NW 9 15 5 8 - - 0.0
26/05:50pm 18.5 17.2 16.8 90 1.1 NW 19 20 10 11 - - 0.0
26/05:40pm 18.5 16.3 16.9 90 1.0 NNW 24 28 13 15 - - 0.0
26/05:30pm 19.0 17.8 17.1 89 1.2 NNW 19 22 10 12 - - 0.0
26/05:20pm 19.1 18.0 17.4 90 1.1 NW 19 22 10 12 - - 0.0
26/05:10pm 19.1 16.9 17.0 88 1.3 NW 24 26 13 14 - - 0.0
26/05:00pm 20.1 17.7 17.4 84 1.7 NW 26 30 14 16 - - 0.0
26/04:50pm 22.1 18.9 15.3 65 4.2 NW 26 32 14 17 - - 0.0
26/04:40pm 22.8 19.5 14.9 61 4.9 NW 26 33 14 18 - - 0.0
26/04:30pm 23.9 21.4 15.1 58 5.5 NNW 22 32 12 17 - - 0.0
26/04:20pm 25.0 23.2 14.4 51 6.6 NW 17 28 9 15 - - 0.0
26/04:10pm 24.6 22.1 15.1 55 6.0 WNW 22 30 12 16 - - 0.0
26/04:00pm 25.1 21.0 14.8 52 6.4 NW 30 37 16 20 - - 0.0
26/03:50pm 25.2 21.6 14.1 50 6.9 NW 26 33 14 18 - - 0.0
26/03:40pm 23.9 18.7 14.5 55 5.8 NW 35 46 19 25 - - 0.0
26/03:30pm 24.2 19.0 14.5 54 6.0 NW 35 44 19 24 - - 0.0
26/03:20pm 22.8 18.3 14.9 61 4.9 NW 32 43 17 23 - - 0.0
26/03:10pm 22.6 17.2 14.0 58 5.3 NW 35 41 19 22 - - 0.0
26/03:00pm 23.6 17.0 13.8 54 6.0 NW 41 46 22 25 - - 0.0
26/02:50pm 23.8 17.2 13.8 53 6.1 NW 41 43 22 23 - - 0.0
26/02:40pm 23.3 17.4 13.6 54 5.9 WNW 37 43 20 23 - - 0.0
26/02:30pm 23.3 17.5 13.9 55 5.8 WNW 37 44 20 24 - - 0.0
26/02:20pm 21.7 14.0 13.4 59 5.0 WNW 46 57 25 31 - - 0.0
26/02:10pm 23.1 15.8 13.4 54 5.9 WNW 44 54 24 29 - - 0.0
26/02:00pm 22.3 15.4 14.4 61 4.9 WNW 44 50 24 27 - - 0.0
26/01:50pm 22.2 16.2 14.5 61 4.7 NW 39 48 21 26 - - 0.0
26/01:40pm 23.2 17.0 12.8 52 6.3 NW 37 44 20 24 - - 0.0
26/01:30pm 23.5 18.4 13.0 51 6.3 NW 32 39 17 21 - - 0.0
26/01:20pm 23.9 17.3 12.7 49 6.7 NW 39 54 21 29 - - 0.0
26/01:10pm 24.1 17.2 11.6 45 7.4 NW 39 44 21 24 - - 0.0
26/01:00pm 23.9 15.5 11.1 44 7.5 NW 46 54 25 29 - - 0.0
26/12:50pm 24.2 16.4 11.2 44 7.6 NW 43 50 23 27 - - 0.0
26/12:40pm 24.2 16.8 11.3 44 7.6 NW 41 54 22 29 - - 0.0
26/12:30pm 24.3 17.4 11.7 45 7.5 NW 39 44 21 24 - - 0.0
26/12:20pm 24.1 16.6 12.2 47 7.1 NW 43 48 23 26 - - 0.0
26/12:10pm 23.9 16.8 12.3 48 6.9 NW 41 48 22 26 - - 0.0
26/12:00pm 23.8 17.0 11.9 47 7.1 NW 39 44 21 24 - - 0.0
26/11:50am 24.0 16.5 11.0 44 7.6 NW 41 44 22 24 - - 0.0
26/11:40am 24.0 18.1 10.4 42 7.9 NW 32 37 17 20 - - 0.0
26/11:30am 24.1 17.2 10.3 41 8.0 NW 37 43 20 23 - - 0.0
26/11:20am 24.1 17.9 10.0 41 8.1 NW 33 41 18 22 - - 0.0
26/11:10am 23.9 17.6 9.8 40 8.1 NW 33 37 18 20 - - 0.0
26/11:00am 23.9 18.6 9.8 40 8.1 NW 28 35 15 19 - - 0.0
26/10:50am 23.9 17.8 9.8 40 8.1 NW 32 37 17 20 - - 0.0
26/10:40am 24.4 18.2 9.5 38 8.5 NW 32 39 17 21 - - 0.0
26/10:30am 24.5 18.3 9.4 38 8.6 NW 32 39 17 21 - - 0.0
26/10:20am 24.3 17.2 9.4 38 8.5 NW 37 41 20 22 - - 0.0
26/10:10am 24.2 17.8 9.5 39 8.4 NW 33 39 18 21 - - 0.0
26/10:00am 24.9 18.5 9.3 37 8.9 NW 33 39 18 21 - - 0.0
26/09:50am 24.1 18.3 9.5 39 8.3 NW 30 33 16 18 - - 0.0
26/09:40am 23.4 16.2 9.3 40 8.0 NW 37 43 20 23 - - 0.0
26/09:30am 22.9 16.5 9.3 42 7.7 NW 33 41 18 22 - - 0.0
26/09:20am 22.8 16.9 9.2 42 7.7 NW 30 39 16 21 - - 0.0
26/09:10am 22.8 16.5 9.1 41 7.7 NW 32 37 17 20 - - 0.0
26/09:00am 22.8 16.0 9.1 41 7.7 NW 35 44 19 24 - - 0.0
26/08:50am 22.8 16.5 8.9 41 7.8 NW 32 39 17 21 - - 0.0
26/08:40am 23.0 16.5 8.9 40 7.9 NW 33 43 18 23 - - 0.0
26/08:30am 23.6 16.3 8.8 39 8.3 NW 37 43 20 23 - - 0.0
26/08:20am 24.1 15.7 8.9 38 8.6 NW 43 46 23 25 - - 0.0
26/08:10am 24.4 17.0 8.3 35 9.0 NW 37 41 20 22 - - 0.0
26/08:00am 23.3 16.7 8.5 38 8.3 NW 33 43 18 23 - - 0.0
26/07:50am 23.4 16.1 8.6 38 8.3 NW 37 46 20 25 - - 0.0
26/07:40am 23.4 16.4 8.6 38 8.3 NW 35 41 19 22 - - 0.0
26/07:30am 23.2 15.1 8.6 39 8.2 WNW 41 46 22 25 - - 0.0
26/07:20am 23.0 16.0 8.5 39 8.1 NW 35 41 19 22 - - 0.0
26/07:10am 22.6 16.5 8.3 40 7.9 NW 30 33 16 18 - - 0.0
26/07:00am 22.6 18.6 8.2 39 8.0 NNW 19 28 10 15 - - 0.0
26/06:50am 22.8 16.7 8.2 39 8.1 NNW 30 43 16 23 - - 0.0
26/06:40am 22.7 17.7 8.0 39 8.1 NNW 24 33 13 18 - - 0.0
26/06:30am 22.7 16.9 8.0 39 8.1 NNW 28 33 15 18 - - 0.0
26/06:20am 22.8 17.8 8.0 38 8.2 NNW 24 35 13 19 - - 0.0
26/06:10am 22.7 18.4 7.7 38 8.2 NNW 20 28 11 15 - - 0.0
26/06:00am 22.8 18.1 7.6 37 8.3 NNW 22 28 12 15 - - 0.0
26/05:50am 22.5 18.2 7.7 38 8.1 NNW 20 24 11 13 - - 0.0
26/05:40am 22.8 18.1 7.6 37 8.3 NNW 22 28 12 15 - - 0.0
26/05:30am 22.6 18.3 7.8 38 8.1 NW 20 26 11 14 - - 0.0
26/05:20am 22.9 17.8 7.5 37 8.4 NNW 24 35 13 19 - - 0.0
26/05:10am 23.1 17.2 7.7 37 8.5 NW 28 35 15 19 - - 0.0
26/05:00am 22.9 18.6 7.7 37 8.4 NNW 20 26 11 14 - - 0.0
26/04:50am 23.1 18.4 7.8 37 8.4 NNW 22 26 12 14 - - 0.0
26/04:40am 23.1 18.0 7.8 37 8.4 NW 24 30 13 16 - - 0.0
26/04:30am 22.9 18.1 7.4 37 8.5 NW 22 28 12 15 - - 0.0
26/04:20am 23.3 18.1 7.4 36 8.7 NW 24 28 13 15 - - 0.0
26/04:10am 23.2 17.6 7.3 36 8.7 NW 26 30 14 16 - - 0.0
26/04:00am 23.1 17.9 7.2 36 8.7 NW 24 30 13 16 - - 0.0
26/03:50am 22.8 18.6 7.3 37 8.5 NW 19 22 10 12 - - 0.0
26/03:40am 23.1 18.6 7.1 35 8.7 NW 20 28 11 15 - - 0.0
26/03:30am 23.5 18.3 7.3 35 8.9 NW 24 26 13 14 - - 0.0
26/03:20am 24.0 17.7 7.3 34 9.2 NW 30 33 16 18 - - 0.0
26/03:10am 24.2 17.3 7.3 34 9.3 NW 33 41 18 22 - - 0.0
26/03:00am 24.2 17.9 7.2 33 9.3 NW 30 35 16 19 - - 0.0

Other formats

Comma delimited format used in spreadsheet applications
http://www.bom.gov.au/fwo/IDN60801/IDN60801.99765.axf

JavaScript Object Notation format (JSON) in row-major order
http://www.bom.gov.au/fwo/IDN60801/IDN60801.99765.json

Data quality

Most of these data are generated automatically and are frequently updated. Quality checks on data are not normally performed. It is possible for incorrect values to appear. Refer to information at About Latest Weather Observations and please check the disclaimer before using these data.